sensor_id;sensor_type;location;lat;lon;timestamp;pressure;altitude;pressure_sealevel;temperature;humidity
48089;BME280;33867;50.314;7.802;2022-07-15T00:15:09;100782.28;;;15.79;60.80
48089;BME280;33867;50.314;7.802;2022-07-15T00:23:33;100786.69;;;15.72;63.07
48089;BME280;33867;50.314;7.802;2022-07-15T00:27:28;100794.31;;;15.68;62.83
48089;BME280;33867;50.314;7.802;2022-07-15T00:36:14;100795.97;;;15.61;63.29
48089;BME280;33867;50.314;7.802;2022-07-15T00:53:36;100792.13;;;15.38;63.21
48089;BME280;33867;50.314;7.802;2022-07-15T00:57:24;100796.72;;;15.29;65.37
48089;BME280;33867;50.314;7.802;2022-07-15T01:01:26;100801.13;;;14.96;66.28
48089;BME280;33867;50.314;7.802;2022-07-15T01:05:32;100809.19;;;14.88;67.99
48089;BME280;33867;50.314;7.802;2022-07-15T01:08:53;100813.88;;;15.04;66.24
48089;BME280;33867;50.314;7.802;2022-07-15T01:12:31;100811.34;;;15.10;65.30
48089;BME280;33867;50.314;7.802;2022-07-15T01:24:33;100817.56;;;15.03;65.26
48089;BME280;33867;50.314;7.802;2022-07-15T01:28:19;100815.19;;;15.00;65.61
48089;BME280;33867;50.314;7.802;2022-07-15T01:37:19;100819.28;;;14.78;66.03
48089;BME280;33867;50.314;7.802;2022-07-15T01:45:55;100827.41;;;14.52;67.41
48089;BME280;33867;50.314;7.802;2022-07-15T02:08:41;100839.81;;;14.37;66.52
48089;BME280;33867;50.314;7.802;2022-07-15T02:13:36;100841.22;;;14.23;66.92
48089;BME280;33867;50.314;7.802;2022-07-15T02:18:30;100843.91;;;14.05;68.02
48089;BME280;33867;50.314;7.802;2022-07-15T04:43:10;100963.97;;;13.59;69.90
48089;BME280;33867;50.314;7.802;2022-07-15T05:02:07;100959.22;;;13.70;70.27
48089;BME280;33867;50.314;7.802;2022-07-15T05:30:22;100983.09;;;13.85;69.93
48089;BME280;33867;50.314;7.802;2022-07-15T05:40:00;100978.69;;;14.11;69.79
48089;BME280;33867;50.314;7.802;2022-07-15T05:44:41;100983.69;;;14.33;68.85
48089;BME280;33867;50.314;7.802;2022-07-15T06:22:21;100985.69;;;15.98;65.20
48089;BME280;33867;50.314;7.802;2022-07-15T06:31:19;100985.69;;;17.79;60.50
48089;BME280;33867;50.314;7.802;2022-07-15T06:43:18;100969.28;;;21.92;48.53
48089;BME280;33867;50.314;7.802;2022-07-15T06:47:30;100975.78;;;25.07;41.75
48089;BME280;33867;50.314;7.802;2022-07-15T07:08:50;100974.66;;;22.74;46.05
48089;BME280;33867;50.314;7.802;2022-07-15T07:13:09;100982.75;;;21.31;49.15
48089;BME280;33867;50.314;7.802;2022-07-15T07:17:36;100989.31;;;20.15;50.98
48089;BME280;33867;50.314;7.802;2022-07-15T07:21:27;100985.44;;;19.95;52.67
48089;BME280;33867;50.314;7.802;2022-07-15T07:24:56;100992.41;;;19.82;53.83
48089;BME280;33867;50.314;7.802;2022-07-15T07:28:49;100983.47;;;19.59;55.54
48089;BME280;33867;50.314;7.802;2022-07-15T07:32:26;100991.09;;;19.26;55.98
48089;BME280;33867;50.314;7.802;2022-07-15T07:36:07;100982.34;;;18.39;57.80
48089;BME280;33867;50.314;7.802;2022-07-15T07:39:54;100978.94;;;18.68;57.47
48089;BME280;33867;50.314;7.802;2022-07-15T07:43:50;100985.44;;;18.67;58.19
48089;BME280;33867;50.314;7.802;2022-07-15T07:47:32;100971.97;;;18.88;57.33
48089;BME280;33867;50.314;7.802;2022-07-15T07:51:17;100970.38;;;19.84;52.68
48089;BME280;33867;50.314;7.802;2022-07-15T07:55:18;100969.31;;;20.14;53.49
48089;BME280;33867;50.314;7.802;2022-07-15T07:58:38;100976.09;;;20.19;52.80
48089;BME280;33867;50.314;7.802;2022-07-15T08:02:13;100974.91;;;21.00;50.43
48089;BME280;33867;50.314;7.802;2022-07-15T08:14:32;100985.22;;;20.11;51.00
48089;BME280;33867;50.314;7.802;2022-07-15T08:17:56;100978.66;;;20.05;50.46
48089;BME280;33867;50.314;7.802;2022-07-15T08:21:36;100974.78;;;20.87;46.92
48089;BME280;33867;50.314;7.802;2022-07-15T08:25:01;100970.28;;;21.84;43.86
48089;BME280;33867;50.314;7.802;2022-07-15T08:28:26;100972.91;;;22.47;45.52
48089;BME280;33867;50.314;7.802;2022-07-15T08:32:01;100975.00;;;22.45;45.38
48089;BME280;33867;50.314;7.802;2022-07-15T08:35:29;100964.56;;;22.21;44.63
48089;BME280;33867;50.314;7.802;2022-07-15T08:39:10;100974.03;;;22.11;44.87
48089;BME280;33867;50.314;7.802;2022-07-15T08:42:30;100986.03;;;19.52;47.95
48089;BME280;33867;50.314;7.802;2022-07-15T08:49:46;100974.97;;;20.13;49.94
48089;BME280;33867;50.314;7.802;2022-07-15T08:53:12;100971.53;;;22.16;44.42
48089;BME280;33867;50.314;7.802;2022-07-15T08:56:37;100949.56;;;24.21;41.37
48089;BME280;33867;50.314;7.802;2022-07-15T09:00:14;100953.56;;;25.52;39.32
48089;BME280;33867;50.314;7.802;2022-07-15T09:03:56;100966.69;;;24.75;39.92
48089;BME280;33867;50.314;7.802;2022-07-15T09:07:24;100961.16;;;23.79;41.20
48089;BME280;33867;50.314;7.802;2022-07-15T09:10:56;100967.69;;;22.79;41.27
48089;BME280;33867;50.314;7.802;2022-07-15T09:14:23;100968.34;;;22.13;43.14
48089;BME280;33867;50.314;7.802;2022-07-15T09:22:33;100953.81;;;23.20;37.65
48089;BME280;33867;50.314;7.802;2022-07-15T09:30:46;100957.44;;;25.69;33.36
48089;BME280;33867;50.314;7.802;2022-07-15T09:34:25;100952.84;;;26.36;35.46
48089;BME280;33867;50.314;7.802;2022-07-15T09:38:03;100945.91;;;27.29;34.04
48089;BME280;33867;50.314;7.802;2022-07-15T09:41:38;100940.59;;;26.74;34.11
48089;BME280;33867;50.314;7.802;2022-07-15T09:45:23;100959.31;;;24.62;34.79
48089;BME280;33867;50.314;7.802;2022-07-15T09:49:02;100952.94;;;24.24;38.41
48089;BME280;33867;50.314;7.802;2022-07-15T09:57:25;100966.56;;;22.40;39.89
48089;BME280;33867;50.314;7.802;2022-07-15T10:01:01;100967.56;;;22.32;41.03
48089;BME280;33867;50.314;7.802;2022-07-15T10:04:31;100961.56;;;22.76;40.34
48089;BME280;33867;50.314;7.802;2022-07-15T10:08:03;100965.75;;;23.98;38.10
48089;BME280;33867;50.314;7.802;2022-07-15T10:11:28;100958.25;;;24.95;35.57
48089;BME280;33867;50.314;7.802;2022-07-15T10:19:44;100943.25;;;27.22;35.67
48089;BME280;33867;50.314;7.802;2022-07-15T10:23:27;100947.50;;;26.95;33.91
48089;BME280;33867;50.314;7.802;2022-07-15T10:31:26;100950.72;;;27.33;32.57
48089;BME280;33867;50.314;7.802;2022-07-15T10:39:08;100941.44;;;26.74;32.99
48089;BME280;33867;50.314;7.802;2022-07-15T10:42:28;100948.75;;;25.65;33.34
48089;BME280;33867;50.314;7.802;2022-07-15T10:49:52;100942.13;;;22.71;35.39
48089;BME280;33867;50.314;7.802;2022-07-15T10:53:37;100949.00;;;21.52;37.83
48089;BME280;33867;50.314;7.802;2022-07-15T10:57:12;100940.41;;;24.72;35.74
48089;BME280;33867;50.314;7.802;2022-07-15T11:00:54;100927.09;;;25.69;34.39
48089;BME280;33867;50.314;7.802;2022-07-15T11:04:24;100921.38;;;26.67;34.49
48089;BME280;33867;50.314;7.802;2022-07-15T11:12:03;100935.66;;;22.18;38.51
48089;BME280;33867;50.314;7.802;2022-07-15T11:15:39;100924.84;;;22.84;37.36
48089;BME280;33867;50.314;7.802;2022-07-15T11:19:21;100918.28;;;24.16;36.59
48089;BME280;33867;50.314;7.802;2022-07-15T11:22:54;100907.53;;;25.52;35.23
48089;BME280;33867;50.314;7.802;2022-07-15T11:26:46;100904.72;;;24.14;31.84
48089;BME280;33867;50.314;7.802;2022-07-15T11:30:43;100906.31;;;24.42;30.31
48089;BME280;33867;50.314;7.802;2022-07-15T11:34:39;100901.50;;;24.62;32.77
48089;BME280;33867;50.314;7.802;2022-07-15T11:38:08;100901.13;;;25.15;30.36
48089;BME280;33867;50.314;7.802;2022-07-15T11:42:01;100905.50;;;25.23;31.59
48089;BME280;33867;50.314;7.802;2022-07-15T11:46:07;100907.19;;;24.99;33.44
48089;BME280;33867;50.314;7.802;2022-07-15T11:49:59;100910.69;;;26.11;29.73
48089;BME280;33867;50.314;7.802;2022-07-15T11:53:56;100902.56;;;26.99;30.99
48089;BME280;33867;50.314;7.802;2022-07-15T11:57:22;100901.69;;;24.67;30.49
48089;BME280;33867;50.314;7.802;2022-07-15T12:00:48;100906.22;;;24.55;28.62
48089;BME280;33867;50.314;7.802;2022-07-15T12:04:41;100898.72;;;24.37;30.31
48089;BME280;33867;50.314;7.802;2022-07-15T12:09:07;100896.94;;;26.41;31.40
48089;BME280;33867;50.314;7.802;2022-07-15T12:13:12;100897.78;;;27.77;30.33
48089;BME280;33867;50.314;7.802;2022-07-15T12:17:02;100892.44;;;25.91;28.90
48089;BME280;33867;50.314;7.802;2022-07-15T12:21:43;100890.44;;;26.17;28.07
48089;BME280;33867;50.314;7.802;2022-07-15T12:25:59;100885.78;;;27.01;29.80
48089;BME280;33867;50.314;7.802;2022-07-15T12:29:28;100891.22;;;28.06;30.08
48089;BME280;33867;50.314;7.802;2022-07-15T12:33:18;100884.44;;;28.88;28.02
48089;BME280;33867;50.314;7.802;2022-07-15T12:41:37;100882.84;;;23.88;32.55
48089;BME280;33867;50.314;7.802;2022-07-15T12:45:30;100886.53;;;25.51;32.15
48089;BME280;33867;50.314;7.802;2022-07-15T12:53:37;100880.13;;;27.31;30.63
48089;BME280;33867;50.314;7.802;2022-07-15T12:57:09;100871.16;;;28.28;28.75
48089;BME280;33867;50.314;7.802;2022-07-15T13:01:32;100883.38;;;27.75;29.66
48089;BME280;33867;50.314;7.802;2022-07-15T13:09:49;100877.00;;;28.43;28.83
48089;BME280;33867;50.314;7.802;2022-07-15T13:17:22;100867.94;;;28.93;27.04
48089;BME280;33867;50.314;7.802;2022-07-15T13:24:36;100860.16;;;29.28;26.65
48089;BME280;33867;50.314;7.802;2022-07-15T13:28:09;100868.53;;;29.33;27.37
48089;BME280;33867;50.314;7.802;2022-07-15T13:31:32;100860.94;;;29.62;26.76
48089;BME280;33867;50.314;7.802;2022-07-15T13:34:56;100867.19;;;30.18;26.71
48089;BME280;33867;50.314;7.802;2022-07-15T13:38:16;100868.72;;;29.27;26.08
48089;BME280;33867;50.314;7.802;2022-07-15T13:42:06;100859.31;;;29.28;25.21
48089;BME280;33867;50.314;7.802;2022-07-15T13:46:37;100857.13;;;28.63;26.48
48089;BME280;33867;50.314;7.802;2022-07-15T13:54:27;100855.19;;;28.63;26.50
48089;BME280;33867;50.314;7.802;2022-07-15T14:02:31;100855.78;;;27.80;25.80
48089;BME280;33867;50.314;7.802;2022-07-15T14:05:53;100855.56;;;27.58;28.58
48089;BME280;33867;50.314;7.802;2022-07-15T14:09:30;100856.22;;;28.29;28.53
48089;BME280;33867;50.314;7.802;2022-07-15T14:12:56;100863.50;;;28.63;27.52
48089;BME280;33867;50.314;7.802;2022-07-15T14:16:33;100861.88;;;27.93;25.19
48089;BME280;33867;50.314;7.802;2022-07-15T14:20:52;100862.34;;;28.02;27.07
48089;BME280;33867;50.314;7.802;2022-07-15T14:24:15;100860.56;;;28.24;27.50
48089;BME280;33867;50.314;7.802;2022-07-15T14:27:38;100852.16;;;28.31;27.70
48089;BME280;33867;50.314;7.802;2022-07-15T14:40:32;100843.53;;;27.76;26.95
48089;BME280;33867;50.314;7.802;2022-07-15T14:44:32;100842.06;;;27.85;26.65
48089;BME280;33867;50.314;7.802;2022-07-15T14:57:44;100849.63;;;26.49;26.97
48089;BME280;33867;50.314;7.802;2022-07-15T15:05:23;100849.09;;;25.00;28.77
48089;BME280;33867;50.314;7.802;2022-07-15T15:08:47;100841.09;;;24.92;28.20
48089;BME280;33867;50.314;7.802;2022-07-15T15:12:23;100839.81;;;24.95;28.62
48089;BME280;33867;50.314;7.802;2022-07-15T15:15:44;100831.31;;;24.46;29.60
48089;BME280;33867;50.314;7.802;2022-07-15T15:19:38;100829.47;;;25.15;29.23
48089;BME280;33867;50.314;7.802;2022-07-15T15:23:03;100840.19;;;25.23;28.84
48089;BME280;33867;50.314;7.802;2022-07-15T15:26:55;100838.34;;;25.17;28.17
48089;BME280;33867;50.314;7.802;2022-07-15T15:30:19;100825.66;;;23.58;29.41
48089;BME280;33867;50.314;7.802;2022-07-15T15:34:23;100831.28;;;24.53;31.21
48089;BME280;33867;50.314;7.802;2022-07-15T15:38:13;100836.78;;;25.03;29.59
48089;BME280;33867;50.314;7.802;2022-07-15T15:41:54;100838.00;;;24.57;30.49
48089;BME280;33867;50.314;7.802;2022-07-15T15:45:43;100835.31;;;25.25;30.44
48089;BME280;33867;50.314;7.802;2022-07-15T15:49:46;100827.03;;;25.62;29.79
48089;BME280;33867;50.314;7.802;2022-07-15T16:13:08;100821.25;;;23.31;31.95
48089;BME280;33867;50.314;7.802;2022-07-15T16:40:00;100806.19;;;23.60;31.75
48089;BME280;33867;50.314;7.802;2022-07-15T16:44:04;100792.28;;;23.93;32.16
48089;BME280;33867;50.314;7.802;2022-07-15T16:47:53;100789.88;;;24.03;31.65
48089;BME280;33867;50.314;7.802;2022-07-15T16:51:40;100786.19;;;23.33;31.41
48089;BME280;33867;50.314;7.802;2022-07-15T16:55:03;100796.28;;;23.59;31.85
48089;BME280;33867;50.314;7.802;2022-07-15T16:59:33;100798.34;;;23.63;31.26
48089;BME280;33867;50.314;7.802;2022-07-15T17:52:12;100805.69;;;22.72;33.80
48089;BME280;33867;50.314;7.802;2022-07-15T18:00:39;100803.19;;;22.70;34.60
48089;BME280;33867;50.314;7.802;2022-07-15T18:10:22;100807.38;;;22.20;35.63
48089;BME280;33867;50.314;7.802;2022-07-15T19:08:55;100817.56;;;20.25;43.89
48089;BME280;33867;50.314;7.802;2022-07-15T19:13:33;100820.22;;;19.46;44.24
48089;BME280;33867;50.314;7.802;2022-07-15T19:21:36;100828.41;;;19.02;45.27
48089;BME280;33867;50.314;7.802;2022-07-15T19:25:20;100830.97;;;18.66;45.69
48089;BME280;33867;50.314;7.802;2022-07-15T19:28:56;100827.44;;;18.80;46.39
48089;BME280;33867;50.314;7.802;2022-07-15T19:33:39;100845.88;;;18.32;46.17
48089;BME280;33867;50.314;7.802;2022-07-15T19:42:17;100851.69;;;18.75;47.18
48089;BME280;33867;50.314;7.802;2022-07-15T19:46:05;100851.13;;;18.80;46.85
48089;BME280;33867;50.314;7.802;2022-07-15T20:04:01;100875.41;;;17.03;51.54
48089;BME280;33867;50.314;7.802;2022-07-15T20:08:15;100878.88;;;17.44;50.53
48089;BME280;33867;50.314;7.802;2022-07-15T21:23:50;100907.44;;;16.02;54.75
48089;BME280;33867;50.314;7.802;2022-07-15T21:46:38;100908.38;;;15.50;56.15
